createdAt,value
2018-09-23T00:03:13.350Z,98063.00
2018-09-23T00:07:15.561Z,98067.00
2018-09-23T00:11:17.753Z,98068.00
2018-09-23T00:15:19.955Z,98060.00
2018-09-23T00:19:22.340Z,98050.00
2018-09-23T00:23:24.551Z,98051.00
2018-09-23T00:27:26.764Z,98030.00
2018-09-23T00:31:28.960Z,98022.00
2018-09-23T00:35:31.294Z,98013.00
2018-09-23T00:39:33.530Z,98013.00
2018-09-23T00:43:35.788Z,98015.00
2018-09-23T00:47:37.930Z,98016.00
2018-09-23T00:51:40.141Z,98012.00
2018-09-23T00:55:42.349Z,97994.00
2018-09-23T00:59:44.496Z,97996.00
2018-09-23T01:03:46.630Z,97981.00
2018-09-23T01:07:48.855Z,97977.00
2018-09-23T01:11:51.079Z,97963.00
2018-09-23T01:15:53.236Z,97963.00
2018-09-23T01:19:55.402Z,97957.00
2018-09-23T01:23:57.604Z,97957.00
2018-09-23T01:27:59.778Z,97946.00
2018-09-23T01:32:01.948Z,97940.00
2018-09-23T01:36:04.147Z,97929.00
2018-09-23T01:40:06.588Z,97920.00
2018-09-23T01:44:08.764Z,97912.00
2018-09-23T01:48:11.018Z,97895.00
2018-09-23T01:52:13.158Z,97892.00
2018-09-23T01:56:15.343Z,97883.00
2018-09-23T02:00:17.517Z,97878.00
2018-09-23T02:04:19.700Z,97849.00
2018-09-23T02:08:21.839Z,97844.00
2018-09-23T02:12:24.107Z,97845.00
2018-09-23T02:16:26.282Z,97841.00
2018-09-23T02:20:28.460Z,97831.00
2018-09-23T02:24:30.608Z,97814.00
2018-09-23T02:28:33.508Z,97820.00
2018-09-23T02:32:35.666Z,97812.00
2018-09-23T02:36:37.850Z,97800.00
2018-09-23T02:40:40.940Z,97794.00
2018-09-23T02:44:43.130Z,97792.00
2018-09-23T02:48:45.331Z,97775.00
2018-09-23T02:52:47.519Z,97773.00
2018-09-23T02:56:49.728Z,97743.00
2018-09-23T03:00:51.886Z,97738.00
2018-09-23T03:04:54.083Z,97731.00
2018-09-23T03:08:56.224Z,97715.00
2018-09-23T03:12:58.420Z,97707.00
2018-09-23T03:17:00.583Z,97695.00
2018-09-23T03:21:02.806Z,97693.00
2018-09-23T03:25:05.069Z,97690.00
2018-09-23T03:29:07.229Z,97682.00
2018-09-23T03:33:09.419Z,97683.00
2018-09-23T03:37:11.590Z,97674.00
2018-09-23T03:41:13.783Z,97656.00
2018-09-23T03:45:15.987Z,97644.00
2018-09-23T03:49:18.170Z,97641.00
2018-09-23T03:53:20.338Z,97633.00
2018-09-23T03:57:22.518Z,97615.00
2018-09-23T04:01:24.668Z,97626.00
2018-09-23T04:05:26.826Z,97628.00
2018-09-23T04:09:28.967Z,97618.00
2018-09-23T04:13:31.127Z,97605.00
2018-09-23T04:17:33.278Z,97597.00
2018-09-23T04:21:35.470Z,97597.00
2018-09-23T04:25:37.607Z,97589.00
2018-09-23T04:29:39.823Z,97589.00
2018-09-23T04:33:41.995Z,97594.00
2018-09-23T04:37:44.342Z,97594.00
2018-09-23T04:41:46.467Z,97587.00
2018-09-23T04:45:48.619Z,97587.00
2018-09-23T04:49:50.779Z,97579.00
2018-09-23T04:53:53.041Z,97578.00
2018-09-23T04:57:55.222Z,97563.00
2018-09-23T05:01:57.472Z,97546.00
2018-09-23T05:05:59.610Z,97552.00
2018-09-23T05:10:01.777Z,97538.00
2018-09-23T05:14:04.054Z,97520.00
2018-09-23T05:18:06.220Z,97527.00
2018-09-23T05:22:08.499Z,97517.00
2018-09-23T05:26:10.696Z,97510.00
2018-09-23T05:30:12.877Z,97513.00
2018-09-23T05:34:15.254Z,97504.00
2018-09-23T05:38:17.454Z,97498.00
2018-09-23T05:42:19.705Z,97493.00
2018-09-23T05:46:21.998Z,97497.00
2018-09-23T05:50:24.168Z,97492.00
2018-09-23T05:54:26.357Z,97479.00
2018-09-23T05:58:28.578Z,97486.00
2018-09-23T06:02:30.837Z,97477.00
2018-09-23T06:06:33.074Z,97476.00
2018-09-23T06:10:35.239Z,97470.00
2018-09-23T06:14:37.501Z,97449.00
2018-09-23T06:18:39.819Z,97452.00
2018-09-23T06:22:41.980Z,97448.00
2018-09-23T06:26:44.146Z,97447.00
2018-09-23T06:30:46.305Z,97439.00
2018-09-23T06:34:48.494Z,97437.00
2018-09-23T06:38:50.917Z,97424.00
2018-09-23T06:42:53.247Z,97435.00
2018-09-23T06:46:55.414Z,97428.00
2018-09-23T06:50:57.704Z,97419.00
2018-09-23T06:54:59.859Z,97410.00
2018-09-23T06:59:03.475Z,97140.00
2018-09-23T07:03:05.799Z,97401.00
2018-09-23T07:07:08.039Z,97410.00
2018-09-23T07:11:10.230Z,97405.00
2018-09-23T07:15:12.484Z,97397.00
2018-09-23T07:19:14.803Z,97389.00
2018-09-23T07:23:17.022Z,97395.00
2018-09-23T07:27:19.249Z,97391.00
2018-09-23T07:31:21.688Z,97388.00
2018-09-23T07:35:23.944Z,97379.00
2018-09-23T07:39:26.159Z,97383.00
2018-09-23T07:43:28.414Z,97386.00
2018-09-23T07:47:31.609Z,97376.00
2018-09-23T07:51:33.842Z,97382.00
2018-09-23T07:55:36.154Z,97379.00
2018-09-23T07:59:38.355Z,97368.00
2018-09-23T08:03:40.519Z,97366.00
2018-09-23T08:07:42.741Z,97363.00
2018-09-23T08:11:44.943Z,97355.00
2018-09-23T08:15:47.161Z,97364.00
2018-09-23T08:19:49.756Z,97358.00
2018-09-23T08:23:51.903Z,97353.00
2018-09-23T08:27:54.094Z,97347.00
2018-09-23T08:33:25.819Z,97358.00
2018-09-23T08:37:28.068Z,97351.00
2018-09-23T08:41:30.239Z,97354.00
2018-09-23T08:45:32.444Z,97341.00
2018-09-23T08:49:34.746Z,97331.00
2018-09-23T08:53:37.089Z,97321.00
2018-09-23T08:57:39.332Z,97311.00
2018-09-23T09:01:41.496Z,97302.00
2018-09-23T09:05:43.666Z,97303.00
2018-09-23T09:09:45.930Z,97284.00
2018-09-23T09:13:48.815Z,97280.00
2018-09-23T09:17:52.528Z,97265.00
2018-09-23T09:21:54.760Z,97269.00
2018-09-23T09:25:57.786Z,97262.00
2018-09-23T09:29:59.996Z,97266.00
2018-09-23T09:34:03.043Z,97253.00
2018-09-23T09:38:05.321Z,97249.00
2018-09-23T09:42:07.547Z,97249.00
2018-09-23T09:46:09.806Z,97249.00
2018-09-23T09:50:12.441Z,97224.00
2018-09-23T09:54:14.699Z,97221.00
2018-09-23T09:58:17.046Z,97213.00
2018-09-23T10:02:19.761Z,97214.00
2018-09-23T10:06:22.082Z,97199.00
2018-09-23T10:10:25.639Z,97190.00
2018-09-23T10:14:28.505Z,97188.00
2018-09-23T10:18:30.800Z,97176.00
2018-09-23T10:22:33.212Z,97175.00
2018-09-23T10:26:36.195Z,97169.00
2018-09-23T10:30:38.446Z,97161.00
2018-09-23T10:34:41.273Z,97147.00
2018-09-23T10:38:43.804Z,97138.00
2018-09-23T10:42:46.036Z,97109.00
2018-09-23T10:46:48.244Z,97091.00
2018-09-23T10:50:51.769Z,97080.00
2018-09-23T10:54:54.124Z,97074.00
2018-09-23T10:58:56.323Z,97061.00
2018-09-23T11:02:58.653Z,97068.00
2018-09-23T11:07:00.888Z,97050.00
2018-09-23T11:11:03.283Z,97037.00
2018-09-23T11:15:06.483Z,97020.00
2018-09-23T11:19:09.393Z,97011.00
2018-09-23T11:23:11.673Z,96991.00
2018-09-23T11:27:14.602Z,96966.00
2018-09-23T11:31:16.798Z,96962.00
2018-09-23T11:35:18.994Z,96935.00
2018-09-23T11:39:21.317Z,96929.00
2018-09-23T11:43:23.714Z,96922.00
2018-09-23T11:47:26.222Z,96897.00
2018-09-23T11:51:28.418Z,96877.00
2018-09-23T11:55:30.615Z,96861.00
2018-09-23T11:59:32.823Z,96864.00
2018-09-23T12:03:35.071Z,96837.00
2018-09-23T12:07:37.268Z,96808.00
2018-09-23T12:11:39.616Z,96787.00
2018-09-23T12:15:41.918Z,96774.00
2018-09-23T12:19:44.231Z,96748.00
2018-09-23T12:23:46.532Z,96750.00
2018-09-23T12:27:48.900Z,96751.00
2018-09-23T12:31:51.140Z,96723.00
2018-09-23T12:35:57.956Z,96730.00
2018-09-23T12:40:00.411Z,96701.00
2018-09-23T12:44:02.637Z,96698.00
2018-09-23T12:48:04.939Z,96691.00
2018-09-23T12:52:07.284Z,96670.00
2018-09-23T12:56:09.604Z,96663.00
2018-09-23T13:00:11.845Z,96653.00
2018-09-23T13:04:14.540Z,96630.00
2018-09-23T13:08:16.762Z,96646.00
2018-09-23T13:12:18.989Z,96614.00
2018-09-23T13:16:21.214Z,96598.00
2018-09-23T13:20:23.509Z,96575.00
2018-09-23T13:24:25.727Z,96577.00
2018-09-23T13:28:27.954Z,96540.00
2018-09-23T13:32:30.179Z,96527.00
2018-09-23T13:36:32.396Z,96528.00
2018-09-23T13:40:34.619Z,96498.00
2018-09-23T13:44:36.866Z,96468.00
2018-09-23T13:48:39.080Z,96494.00
2018-09-23T13:52:41.323Z,96465.00
2018-09-23T13:56:43.526Z,96461.00
2018-09-23T14:00:45.808Z,96463.00
2018-09-23T14:04:48.001Z,96488.00
2018-09-23T14:08:50.294Z,96717.00
2018-09-23T14:14:21.982Z,96706.00
2018-09-23T14:18:24.301Z,96794.00
2018-09-23T14:22:26.772Z,96760.00
2018-09-23T14:26:29.054Z,96735.00
2018-09-23T14:30:31.448Z,96715.00
2018-09-23T14:34:33.681Z,96701.00
2018-09-23T14:38:35.933Z,96667.00
2018-09-23T14:42:38.170Z,96695.00
2018-09-23T14:46:40.437Z,96679.00
2018-09-23T14:50:42.671Z,96661.00
2018-09-23T14:54:45.038Z,96653.00
2018-09-23T14:58:47.135Z,96654.00
2018-09-23T15:02:49.387Z,96680.00
2018-09-23T15:06:51.665Z,96659.00
2018-09-23T15:10:54.558Z,96705.00
2018-09-23T15:14:56.848Z,96800.00
2018-09-23T15:18:59.092Z,96833.00
2018-09-23T15:23:01.378Z,96832.00
2018-09-23T15:27:03.649Z,96863.00
2018-09-23T15:31:05.923Z,96856.00
2018-09-23T15:35:08.380Z,96901.00
2018-09-23T15:39:10.694Z,96889.00
2018-09-23T15:43:14.997Z,96910.00
2018-09-23T15:47:17.251Z,96886.00
2018-09-23T15:51:19.480Z,96945.00
2018-09-23T15:55:21.745Z,96955.00
2018-09-23T15:59:24.028Z,96960.00
2018-09-23T16:03:26.252Z,96997.00
2018-09-23T16:07:28.488Z,97031.00
2018-09-23T16:11:30.743Z,97041.00
2018-09-23T16:15:33.081Z,97000.00
2018-09-23T16:19:35.420Z,97040.00
2018-09-23T16:23:37.697Z,97042.00
2018-09-23T16:27:39.972Z,97068.00
2018-09-23T16:31:42.204Z,97077.00
2018-09-23T16:35:44.459Z,97059.00
2018-09-23T16:39:46.796Z,97086.00
2018-09-23T16:43:48.995Z,97085.00
2018-09-23T16:47:51.343Z,97142.00
2018-09-23T16:51:53.658Z,97175.00
2018-09-23T16:55:55.916Z,97193.00
2018-09-23T16:59:58.115Z,97167.00
2018-09-23T17:04:00.464Z,97171.00
2018-09-23T17:08:02.893Z,97151.00
2018-09-23T17:12:05.955Z,97147.00
2018-09-23T17:16:08.236Z,97225.00
2018-09-23T17:20:10.547Z,97286.00
2018-09-23T17:24:12.810Z,97316.00
2018-09-23T17:28:15.076Z,97358.00
2018-09-23T17:32:17.352Z,97372.00
2018-09-23T17:36:20.231Z,97371.00
2018-09-23T17:40:22.826Z,97399.00
2018-09-23T17:44:25.128Z,97395.00
2018-09-23T17:48:27.981Z,97426.00
2018-09-23T17:52:30.268Z,97443.00
2018-09-23T17:56:32.561Z,97441.00
2018-09-23T18:00:34.791Z,97464.00
2018-09-23T18:04:37.038Z,97481.00
2018-09-23T18:08:39.492Z,97491.00
2018-09-23T18:12:41.716Z,97542.00
2018-09-23T18:16:43.886Z,97533.00
2018-09-23T18:20:46.157Z,97564.00
2018-09-23T18:24:48.445Z,97573.00
2018-09-23T18:28:50.802Z,97603.00
2018-09-23T18:32:54.039Z,97621.00
2018-09-23T18:36:56.384Z,97635.00
2018-09-23T18:40:58.967Z,97634.00
2018-09-23T18:45:01.318Z,97653.00
2018-09-23T18:49:03.735Z,97685.00
2018-09-23T18:53:11.776Z,97707.00
2018-09-23T18:57:14.587Z,97753.00
2018-09-23T19:01:16.893Z,97757.00
2018-09-23T19:05:20.413Z,97788.00
2018-09-23T19:09:22.685Z,97810.00
2018-09-23T19:13:30.472Z,97840.00
2018-09-23T19:17:32.741Z,97856.00
2018-09-23T19:21:35.020Z,97860.00
2018-09-23T19:25:37.489Z,97860.00
2018-09-23T19:29:39.785Z,97873.00
2018-09-23T19:33:42.032Z,97885.00
2018-09-23T19:37:44.987Z,97906.00
2018-09-23T19:41:47.416Z,97934.00
2018-09-23T19:45:49.607Z,97937.00
2018-09-23T19:49:52.243Z,97943.00
2018-09-23T19:53:54.437Z,97951.00
2018-09-23T19:57:58.279Z,97946.00
2018-09-23T20:02:00.784Z,97967.00
2018-09-23T20:06:03.039Z,97964.00
2018-09-23T20:10:05.412Z,97984.00
2018-09-23T20:14:07.843Z,97986.00
2018-09-23T20:18:10.145Z,97998.00
2018-09-23T20:22:13.454Z,98023.00
2018-09-23T20:26:15.709Z,98044.00
2018-09-23T20:30:18.148Z,98064.00
2018-09-23T20:34:20.362Z,98071.00
2018-09-23T20:38:22.580Z,98085.00
2018-09-23T20:42:24.796Z,98111.00
2018-09-23T20:46:27.009Z,98119.00
2018-09-23T20:50:29.255Z,98145.00
2018-09-23T20:54:31.471Z,98163.00
2018-09-23T20:58:33.666Z,98167.00
2018-09-23T21:02:35.849Z,98172.00
2018-09-23T21:06:38.096Z,98173.00
2018-09-23T21:10:40.295Z,98193.00
2018-09-23T21:14:42.516Z,98208.00
2018-09-23T21:18:44.743Z,98221.00
2018-09-23T21:22:46.977Z,98225.00
2018-09-23T21:26:49.196Z,98251.00
2018-09-23T21:30:51.424Z,98267.00
2018-09-23T21:34:55.225Z,98286.00
2018-09-23T21:38:57.432Z,98289.00
2018-09-23T21:42:59.676Z,98288.00
2018-09-23T21:47:01.934Z,98300.00
2018-09-23T21:51:04.131Z,98308.00
2018-09-23T21:55:08.144Z,98318.00
2018-09-23T21:59:10.444Z,98338.00
2018-09-23T22:03:13.868Z,98339.00
2018-09-23T22:07:16.705Z,98351.00
2018-09-23T22:11:19.491Z,98359.00
2018-09-23T22:15:24.173Z,98364.00
2018-09-23T22:19:26.399Z,98373.00
2018-09-23T22:23:28.673Z,98379.00
2018-09-23T22:27:30.862Z,98392.00
2018-09-23T22:31:33.176Z,98399.00
2018-09-23T22:35:35.371Z,98412.00
2018-09-23T22:39:37.581Z,98422.00
2018-09-23T22:43:39.839Z,98439.00
2018-09-23T22:47:42.100Z,98436.00
2018-09-23T22:51:44.487Z,98443.00
2018-09-23T22:55:47.253Z,98465.00
2018-09-23T22:59:49.538Z,98474.00
2018-09-23T23:03:52.476Z,98487.00
2018-09-23T23:07:54.766Z,98492.00
2018-09-23T23:11:57.036Z,98508.00
2018-09-23T23:15:59.299Z,98511.00
2018-09-23T23:20:01.551Z,98531.00
2018-09-23T23:24:03.847Z,98530.00
2018-09-23T23:28:06.165Z,98552.00
2018-09-23T23:32:08.436Z,98550.00
2018-09-23T23:36:10.660Z,98564.00
2018-09-23T23:40:13.069Z,98566.00
2018-09-23T23:44:15.277Z,98587.00
2018-09-23T23:48:18.085Z,98595.00
2018-09-23T23:52:20.295Z,98603.00
2018-09-23T23:56:22.659Z,98606.00
